Estación Meteorológica Peña el Pijo (Robertgarden) [ 12/11/19 23:06:38 CET ]

Fecha Hora Presion(HPa) Temp (°C) Humedad % Rocio (°C) Viento ( m/s) Direccion Lluvia 1Hora(mm) Lluvia 24H(mm) LLuvia Total(mm)
2019-Sep-08 01:01:47 1011.800 16.9 76 12.6         391.83
2019-Sep-08 02:01:49 1011.100 15.8 80 12.4         391.83
2019-Sep-08 03:01:47 1011.100 14.8 81 11.6         391.83
2019-Sep-08 04:08:06 1011.200 13.6 83 10.7         391.83
2019-Sep-08 05:01:52 1010.900 12.6 84 9.9         391.83
2019-Sep-08 06:01:51 1010.500 12.4 86 10.1         391.83
2019-Sep-08 07:01:49 1010.500 11.8 87 9.7         391.83
2019-Sep-08 08:01:51 1010.600 10.9 87 8.8         391.83
2019-Sep-08 09:01:53 1010.800 12.5 88 10.5         391.83
2019-Sep-08 10:01:53 1011.200 14.9 88 12.9         391.83
2019-Sep-08 11:01:50 1011.400 18.1 78 14.2         391.83
2019-Sep-08 12:01:46 1011.400 20.9 66 14.3         391.83
2019-Sep-08 13:01:38 1010.900 24.2 54 14.3         391.83
2019-Sep-08 14:01:54 1010.400 25.8 45 12.9         391.83
2019-Sep-08 15:01:44 1010.100 27.9 41 13.4         391.83
2019-Sep-08 16:02:06 1009.700 25.9 43 12.3         391.83
2019-Sep-08 17:01:52 1009.500 23.6 47 11.6         391.83
2019-Sep-08 18:01:54 1009.700 22.8 50 11.8         391.83
2019-Sep-08 19:01:44 1010.000 21.9 52 11.6         391.83
2019-Sep-08 20:01:48 1010.100 19.8 56 10.7         391.83
2019-Sep-08 21:01:38 1010.600 17.9 65 11.2         391.83
2019-Sep-08 22:02:01 1011.400 16.9 68 10.9         391.83
2019-Sep-08 23:01:50 1011.800 15.4 73 10.6         391.83

Temperatura Máxima:27°    Temperatura Mínima:10°
Presión Máxima:1011.800 Hpa    Presión Mínima:1009.500 Hpa


Volver